Pagina principale
METAR-TAF:

METAR-TAF

Aeroporti :

Aeroporto di Stoccarda

Stoccarda, Germania

latitudine: 48-41N, longitudine: 009-13E, altezza: 396 m

Osservazione

Il bollettino è stato emesso 30 minuti fa, alle 03:50 UTC
Vento 12 kt da nord/nord-est
Temperature 0°C
Umidità 74%
Pressione 1025 hPa
Visibilità 10 km o più
Poco nuvoloso ad un'altezza di 2500 ft
Nuvoloso ad un'altezza di 3200 ft

METAR: EDDS 300350Z 03012KT 9999 FEW025 BKN032 00/M04 Q1025

Ora: 06:20 (04:20 UTC)

Previsione

Il bollettino è stato emesso 5 ore e 20 minuti fa, alle 23:00 UTC
Previsione valida dal 30 alle 00 UTC al 30 alle 24 UTC
Vento 10 kt da nord/nord-est con raffiche fino a 20 kt
Visibilità 10 km o più
Nuvoloso ad un'altezza di 2000 ft
Evoluzione graduale
dal 30 alle 17 UTC al 30 alle 19 UTC
Vento 3 kt da direzioni variabili

TAF: EDDS 292300Z 3000/3024 02010G20KT 9999 BKN020 BECMG 3017/3019 VRB03KT

Osservazioni e previsioni meteorologiche di più di 4000 aeroporti (messaggi METAR e TAF).

Le stazioni disponibili sono rappresentate dai dischi gialli e rossi sulla carta.

Puntare il mouse per vedere il nome della stazione.

Clicca sopra per visualizzare le osservazioni e previsioni meteorologiche.

Per cambiare la mappa : fare clic sui pulsanti verdi con una croce nera per ingrandire, il pulsante verde con un trattino per diminuire, o sulla freccia verde per le mappe adiacenti.


METAR-TAF: